Time;durP1;ratioP1;P1;durP2;ratioP2;P2;SDS_P1;SDS_P2;PMS_P1;PMS_P2;Temp;Humidity;BMP_temperature;BMP_pressure;BME280_temperature;BME280_humidity;BME280_pressure;Samples;Min_cycle;Max_cycle;Signal;HPM_P1;HPM_P2
2021/06/24 00:00:00;;;;;;;8.15;3.65;;;;;;;15.62;68.76;102059.63;5054499;28;20434;-49
2021/06/24 00:02:29;;;;;;;7.60;3.42;;;;;;;15.66;68.80;102052.50;5055224;28;20049;-52
2021/06/24 00:05:16;;;;;;;8.82;3.75;;;;;;;15.68;68.95;102054.94;5055143;28;20171;-52
2021/06/24 00:07:43;;;;;;;13.95;4.22;;;;;;;15.69;68.74;102051.94;5055387;28;20052;-51
2021/06/24 00:10:13;;;;;;;10.90;3.60;;;;;;;15.66;68.72;102058.00;5054199;28;20105;-48
2021/06/24 00:12:40;;;;;;;10.38;3.83;;;;;;;15.62;68.90;102059.63;5054668;28;20049;-49
2021/06/24 00:15:09;;;;;;;11.38;3.80;;;;;;;15.64;69.14;102071.16;5054959;28;20053;-50
2021/06/24 00:17:36;;;;;;;12.63;3.22;;;;;;;15.68;68.79;102066.78;5055124;28;20067;-49
2021/06/24 00:20:05;;;;;;;10.13;3.38;;;;;;;15.68;68.57;102068.69;5054896;28;20502;-47
2021/06/24 00:22:33;;;;;;;12.35;3.42;;;;;;;15.66;69.01;102074.47;5054605;28;20095;-49
2021/06/24 00:25:00;;;;;;;9.10;3.42;;;;;;;15.66;68.51;102066.22;5054109;28;20045;-49
2021/06/24 00:27:28;;;;;;;8.55;3.28;;;;;;;15.62;68.64;102067.03;5054625;28;20049;-48
2021/06/24 00:29:55;;;;;;;10.30;3.67;;;;;;;15.51;69.08;102057.94;5054484;28;20049;-48
2021/06/24 00:32:23;;;;;;;10.63;3.92;;;;;;;15.48;69.60;102063.97;5054612;28;20041;-46
2021/06/24 00:35:01;;;;;;;10.30;3.42;;;;;;;15.52;69.15;102065.09;5053358;28;20036;-46
2021/06/24 00:37:30;;;;;;;10.75;3.78;;;;;;;15.50;69.58;102075.53;5054665;28;20057;-49
2021/06/24 00:39:58;;;;;;;8.38;3.75;;;;;;;15.48;68.97;102077.72;5053975;28;20080;-48
2021/06/24 00:42:28;;;;;;;10.80;3.30;;;;;;;15.47;69.77;102060.41;5054274;28;20063;-48
2021/06/24 00:44:57;;;;;;;10.18;3.17;;;;;;;15.50;69.52;102062.59;5053453;28;20060;-50
2021/06/24 00:47:25;;;;;;;10.48;3.63;;;;;;;15.50;69.43;102061.78;5054411;28;20068;-47
2021/06/24 00:49:53;;;;;;;12.82;3.88;;;;;;;15.48;69.04;102055.75;5053031;28;20049;-47
2021/06/24 00:52:21;;;;;;;12.38;3.88;;;;;;;15.40;69.64;102059.03;5054113;28;20045;-48
2021/06/24 00:54:49;;;;;;;10.20;3.53;;;;;;;15.37;69.73;102048.56;5052439;28;20041;-48
2021/06/24 00:57:20;;;;;;;10.23;3.25;;;;;;;15.40;69.63;102048.84;5052910;28;20041;-48
2021/06/24 00:59:48;;;;;;;10.45;3.35;;;;;;;15.44;69.49;102051.88;5052767;28;20051;-48
2021/06/24 01:02:16;;;;;;;9.95;3.30;;;;;;;15.48;69.67;102056.56;5053899;28;20411;-47
2021/06/24 01:04:44;;;;;;;12.18;3.95;;;;;;;15.52;69.25;102056.84;5049376;28;20072;-47
2021/06/24 01:07:11;;;;;;;12.52;3.70;;;;;;;15.50;69.35;102054.38;5051383;28;20087;-48
2021/06/24 01:10:01;;;;;;;10.23;3.50;;;;;;;15.52;69.01;102054.94;5052809;28;20090;-49
2021/06/24 01:12:33;;;;;;;11.48;3.90;;;;;;;15.53;68.98;102053.81;5049433;28;20069;-48
2021/06/24 01:15:01;;;;;;;10.82;3.60;;;;;;;15.48;68.70;102058.47;5042676;28;20068;-48
2021/06/24 01:17:30;;;;;;;10.70;3.85;;;;;;;15.45;69.42;102056.28;5052364;28;20415;-48
2021/06/24 01:19:58;;;;;;;7.93;3.03;;;;;;;15.41;69.50;102058.72;5053488;28;20041;-50
2021/06/24 01:22:25;;;;;;;11.50;3.70;;;;;;;15.40;69.52;102050.78;5052851;28;20067;-48
2021/06/24 01:24:53;;;;;;;8.93;3.20;;;;;;;15.41;69.61;102055.16;5053849;28;20037;-49
2021/06/24 01:27:22;;;;;;;9.80;3.58;;;;;;;15.37;69.69;102049.41;5052122;28;20036;-49
2021/06/24 01:29:52;;;;;;;15.43;3.90;;;;;;;15.38;69.45;102040.06;5048847;28;20076;-50
2021/06/24 01:32:19;;;;;;;11.10;3.60;;;;;;;15.40;69.45;102039.81;5049516;28;20060;-50
2021/06/24 01:34:47;;;;;;;10.65;3.45;;;;;;;15.41;69.12;102038.69;5052401;28;20041;-50
2021/06/24 01:37:15;;;;;;;8.18;3.30;;;;;;;15.36;69.36;102030.44;5051541;28;20048;-48
2021/06/24 01:39:44;;;;;;;11.60;3.47;;;;;;;15.40;69.61;102045.28;5052254;28;20048;-48
2021/06/24 01:42:14;;;;;;;15.07;4.00;;;;;;;15.41;69.16;102049.69;5052839;28;20396;-50
2021/06/24 01:44:42;;;;;;;10.82;3.80;;;;;;;15.36;68.77;102045.00;5053258;28;20503;-49
2021/06/24 01:47:12;;;;;;;10.32;3.42;;;;;;;15.24;69.41;102049.91;5052889;28;20056;-47
2021/06/24 01:49:40;;;;;;;11.52;3.35;;;;;;;15.22;69.73;102039.19;5051881;28;20045;-50
2021/06/24 01:52:08;;;;;;;9.15;3.70;;;;;;;15.27;69.77;102041.13;5052628;28;20518;-49
2021/06/24 01:54:35;;;;;;;9.82;3.38;;;;;;;15.27;69.75;102038.38;5051834;28;20399;-47
2021/06/24 01:57:03;;;;;;;14.05;3.42;;;;;;;15.25;69.83;102024.09;5053117;28;20044;-49
2021/06/24 01:59:33;;;;;;;8.68;3.35;;;;;;;15.18;69.47;102024.34;5051992;28;20522;-51
2021/06/24 02:02:04;;;;;;;10.48;3.53;;;;;;;15.05;69.80;102028.41;5051651;28;20045;-50
2021/06/24 02:04:52;;;;;;;12.80;4.07;;;;;;;15.00;70.19;102031.13;5051988;28;20047;-51
2021/06/24 02:07:31;;;;;;;7.50;3.33;;;;;;;15.05;70.24;102033.06;5051749;28;20487;-49
2021/06/24 02:10:22;;;;;;;12.32;3.92;;;;;;;15.04;70.18;102028.69;5052645;28;20059;-48
2021/06/24 02:12:56;;;;;;;11.57;4.47;;;;;;;14.96;70.48;102020.97;5052747;28;20040;-49
2021/06/24 02:15:25;;;;;;;11.30;3.80;;;;;;;14.88;70.38;102017.63;5052722;28;20530;-49
2021/06/24 02:17:53;;;;;;;9.90;3.67;;;;;;;14.85;70.54;102025.59;5051683;28;20048;-49
2021/06/24 02:20:34;;;;;;;11.27;4.05;;;;;;;14.80;70.47;102017.34;5051074;28;20048;-50
2021/06/24 02:23:10;;;;;;;11.20;3.92;;;;;;;14.83;70.76;102016.78;5050663;28;20084;-51
2021/06/24 02:25:43;;;;;;;11.82;3.78;;;;;;;14.91;70.75;102025.34;5047973;28;20408;-49
2021/06/24 02:28:20;;;;;;;6.70;3.70;;;;;;;14.91;70.38;102019.88;5042954;28;20053;-50
2021/06/24 02:31:06;;;;;;;;;;;;;;;14.95;70.39;102020.13;5039105;28;20442;-51
2021/06/24 02:33:37;;;;;;;9.13;3.65;;;;;;;14.83;70.83;102014.88;5047868;28;19931;-48
2021/06/24 02:36:15;;;;;;;9.68;3.65;;;;;;;14.80;70.85;102007.19;5050880;28;20403;-49
2021/06/24 02:38:43;;;;;;;12.02;4.03;;;;;;;14.89;71.03;102013.00;5052285;28;20041;-49
2021/06/24 02:41:11;;;;;;;11.48;4.38;;;;;;;15.02;70.39;102017.16;5050468;28;20049;-48
2021/06/24 02:43:40;;;;;;;8.75;3.45;;;;;;;15.04;70.10;102017.72;5052030;28;20057;-49
2021/06/24 02:46:09;;;;;;;11.23;3.88;;;;;;;15.04;69.93;102023.22;5047399;28;20041;-48
2021/06/24 02:48:42;;;;;;;12.85;4.30;;;;;;;14.99;70.00;102015.78;5041810;28;20037;-53
2021/06/24 02:51:11;;;;;;;12.57;4.40;;;;;;;14.98;69.97;102010.53;5047118;28;20072;-49
2021/06/24 02:53:58;;;;;;;8.75;3.70;;;;;;;15.04;70.14;102012.22;5044703;28;20053;-48
2021/06/24 02:56:25;;;;;;;17.02;4.30;;;;;;;15.03;69.62;102014.16;5051403;28;20037;-49
2021/06/24 02:58:56;;;;;;;10.57;3.72;;;;;;;14.98;69.69;102018.78;5052218;28;20091;-48
2021/06/24 03:01:30;;;;;;;12.07;4.50;;;;;;;14.94;69.87;102006.72;5051014;28;20064;-47
2021/06/24 03:04:05;;;;;;;10.57;3.78;;;;;;;14.89;70.00;102005.59;5050305;28;20518;-49
2021/06/24 03:06:34;;;;;;;10.55;4.15;;;;;;;14.79;70.27;102011.03;5052048;28;20045;-50
2021/06/24 03:09:05;;;;;;;10.48;4.25;;;;;;;14.69;70.64;102006.28;5052049;28;20522;-48
2021/06/24 03:11:34;;;;;;;10.70;4.00;;;;;;;14.64;70.97;101999.97;5050658;28;20045;-48
2021/06/24 03:14:05;;;;;;;12.75;4.00;;;;;;;14.66;70.79;101992.31;5051801;28;20060;-48
2021/06/24 03:16:38;;;;;;;11.63;4.05;;;;;;;14.70;70.83;101996.16;5050644;28;20538;-49
2021/06/24 03:19:08;;;;;;;10.98;3.65;;;;;;;14.73;70.71;102001.13;5051504;28;20057;-48
2021/06/24 03:21:41;;;;;;;13.07;4.03;;;;;;;14.70;70.69;102012.63;5050267;28;20067;-48
2021/06/24 03:24:09;;;;;;;10.10;3.90;;;;;;;14.64;70.88;101999.97;5052591;28;20488;-49
2021/06/24 03:26:38;;;;;;;10.20;4.13;;;;;;;14.65;70.74;102007.94;5050949;28;20079;-51
2021/06/24 03:29:12;;;;;;;10.98;4.00;;;;;;;14.68;70.83;102007.41;5051252;28;20557;-52
2021/06/24 03:31:45;;;;;;;7.95;3.70;;;;;;;14.71;70.65;102008.78;5050628;28;20045;-49
2021/06/24 03:34:15;;;;;;;9.00;4.25;;;;;;;14.78;70.50;102000.31;5053151;28;20041;-52
2021/06/24 03:36:45;;;;;;;11.25;4.40;;;;;;;14.84;70.43;102010.19;5054819;28;20102;-48
2021/06/24 03:39:14;;;;;;;10.38;3.78;;;;;;;14.81;70.19;102008.81;5041937;28;20478;-49
2021/06/24 03:41:42;;;;;;;12.20;4.43;;;;;;;14.75;70.13;102012.66;5055510;28;20056;-50
2021/06/24 03:44:10;;;;;;;11.23;4.35;;;;;;;14.74;70.56;102010.16;5055279;28;20047;-52
2021/06/24 03:46:38;;;;;;;9.43;4.00;;;;;;;14.73;70.32;102000.28;5055624;28;20033;-49
2021/06/24 03:49:06;;;;;;;9.52;4.13;;;;;;;14.65;70.76;102004.38;5055231;28;20041;-50
2021/06/24 03:51:35;;;;;;;11.52;4.53;;;;;;;14.64;70.78;101998.03;5051143;28;20083;-49
2021/06/24 03:54:04;;;;;;;11.25;4.32;;;;;;;14.62;70.88;101999.41;5051576;28;20055;-48
2021/06/24 03:56:35;;;;;;;8.40;3.90;;;;;;;14.67;70.70;102004.91;5055090;28;20049;-47
2021/06/24 03:59:18;;;;;;;13.02;3.95;;;;;;;14.66;70.53;102009.56;5050986;28;20129;-50
2021/06/24 04:01:49;;;;;;;11.95;3.90;;;;;;;14.71;70.50;102011.53;5041115;28;20499;-49
2021/06/24 04:04:17;;;;;;;7.88;3.80;;;;;;;14.76;70.01;102010.72;5055510;28;20064;-50
2021/06/24 04:06:51;;;;;;;12.27;3.75;;;;;;;14.80;69.87;102007.19;5053906;28;20583;-48
2021/06/24 04:09:19;;;;;;;11.27;4.07;;;;;;;14.84;69.82;102008.31;5055708;28;20064;-50
2021/06/24 04:11:48;;;;;;;10.20;4.00;;;;;;;14.87;69.39;102017.94;5055068;28;20137;-50
2021/06/24 04:14:34;;;;;;;11.32;4.03;;;;;;;14.82;68.99;102013.22;5055259;28;20056;-50
2021/06/24 04:17:20;;;;;;;9.40;3.83;;;;;;;14.79;69.11;102011.03;5047409;28;20084;-48
2021/06/24 04:19:51;;;;;;;9.13;3.95;;;;;;;14.74;69.23;102008.25;5045463;28;20073;-48
2021/06/24 04:22:20;;;;;;;9.18;3.75;;;;;;;14.77;69.29;102007.72;5053897;28;20049;-49
2021/06/24 04:25:08;;;;;;;9.80;3.85;;;;;;;14.78;69.36;102006.63;5053373;28;20045;-46
2021/06/24 04:27:37;;;;;;;10.35;4.15;;;;;;;14.78;69.10;101997.56;5050315;28;20041;-49
2021/06/24 04:30:06;;;;;;;10.07;4.00;;;;;;;14.75;69.12;101993.44;5048160;28;20511;-49
2021/06/24 04:32:38;;;;;;;12.60;4.30;;;;;;;14.75;68.95;101993.44;5050005;28;20069;-53
2021/06/24 04:35:07;;;;;;;9.48;3.85;;;;;;;14.77;68.99;101988.53;5048517;28;20060;-48
2021/06/24 04:37:36;;;;;;;9.98;4.03;;;;;;;14.76;69.13;101984.09;5053580;28;20045;-48
2021/06/24 04:40:06;;;;;;;9.50;4.20;;;;;;;14.77;69.17;101985.78;5049851;28;20053;-49
2021/06/24 04:42:44;;;;;;;12.60;4.25;;;;;;;14.77;68.97;101985.78;5039732;28;20458;-48
2021/06/24 04:45:15;;;;;;;10.57;4.13;;;;;;;14.70;69.12;101985.19;5052624;28;20098;-49
2021/06/24 04:48:06;;;;;;;8.85;3.72;;;;;;;14.55;69.73;101982.34;5043180;28;20049;-48
2021/06/24 04:50:37;;;;;;;10.75;3.90;;;;;;;14.54;70.20;101980.72;5053047;28;20488;-47
2021/06/24 04:53:05;;;;;;;11.65;4.43;;;;;;;14.58;69.89;101981.84;5054348;28;20094;-53
2021/06/24 04:55:51;;;;;;;16.75;4.45;;;;;;;14.45;70.21;101974.88;5052913;28;20411;-52
2021/06/24 04:58:22;;;;;;;8.18;3.90;;;;;;;14.42;70.71;101984.47;5052741;28;20045;-53
2021/06/24 05:01:11;;;;;;;9.90;4.35;;;;;;;14.47;70.62;101975.44;5031572;28;20448;-51
2021/06/24 05:03:57;;;;;;;10.35;3.65;;;;;;;14.51;70.65;101973.81;5031389;28;20045;-48
2021/06/24 05:06:25;;;;;;;10.75;4.60;;;;;;;14.59;70.42;101972.50;5031360;28;20060;-49
2021/06/24 05:08:52;;;;;;;10.73;4.40;;;;;;;14.53;70.22;101973.53;5011770;28;20070;-47
2021/06/24 05:11:21;;;;;;;9.85;4.10;;;;;;;14.53;70.45;101984.50;5027683;28;20045;-50
2021/06/24 05:13:49;;;;;;;10.93;4.15;;;;;;;14.55;70.58;101974.13;5031209;28;20547;-49
2021/06/24 05:16:17;;;;;;;12.05;4.70;;;;;;;14.60;70.40;101974.16;5031184;28;20096;-49
2021/06/24 05:18:44;;;;;;;9.57;4.15;;;;;;;14.62;70.26;101980.19;5012958;28;20095;-50
2021/06/24 05:21:12;;;;;;;9.32;4.10;;;;;;;14.65;70.44;101982.44;5031464;28;20423;-49
2021/06/24 05:23:41;;;;;;;12.43;4.20;;;;;;;14.69;70.06;101989.00;5030745;28;20057;-48
2021/06/24 05:26:09;;;;;;;10.23;3.85;;;;;;;14.72;70.19;101988.50;5031207;28;20152;-47
2021/06/24 05:28:37;;;;;;;10.60;4.60;;;;;;;14.75;69.95;101992.63;5014283;28;20056;-48
2021/06/24 05:31:05;;;;;;;10.38;4.07;;;;;;;14.76;70.23;101989.59;5031186;28;20528;-48
2021/06/24 05:33:33;;;;;;;10.93;4.70;;;;;;;14.74;70.37;101986.28;5031006;28;20045;-51
2021/06/24 05:36:01;;;;;;;14.40;4.53;;;;;;;14.69;70.30;101989.00;5030972;28;20041;-48
2021/06/24 05:38:28;;;;;;;8.35;3.67;;;;;;;14.69;70.08;101984.34;5043301;28;20052;-50
2021/06/24 05:40:56;;;;;;;11.52;4.88;;;;;;;14.64;70.37;101980.75;5041243;28;20037;-49
2021/06/24 05:43:24;;;;;;;11.93;4.65;;;;;;;14.67;70.31;101980.22;5052331;28;20049;-50
2021/06/24 05:45:52;;;;;;;12.35;4.35;;;;;;;14.69;70.28;101984.34;5052956;28;20496;-51
2021/06/24 05:48:20;;;;;;;10.57;4.68;;;;;;;14.68;70.60;101987.38;5052869;28;20053;-51
2021/06/24 05:50:48;;;;;;;11.43;4.50;;;;;;;14.68;70.42;101976.41;5052496;28;20037;-49
2021/06/24 05:53:15;;;;;;;10.05;4.63;;;;;;;14.72;70.49;101974.78;5052889;28;20233;-49
2021/06/24 05:55:49;;;;;;;11.13;4.53;;;;;;;14.75;70.20;101968.75;5052552;28;20045;-47
2021/06/24 05:58:22;;;;;;;10.50;4.60;;;;;;;14.77;70.26;101966.56;5052269;28;20040;-48
2021/06/24 06:00:52;;;;;;;11.85;4.43;;;;;;;14.77;70.11;101962.97;5052728;28;20041;-49
2021/06/24 06:03:21;;;;;;;9.82;4.25;;;;;;;14.78;70.32;101965.47;5052682;28;20044;-51
2021/06/24 06:05:49;;;;;;;8.98;4.57;;;;;;;14.74;70.38;101969.00;5052888;28;20512;-48
2021/06/24 06:08:19;;;;;;;14.73;4.75;;;;;;;14.68;70.71;101971.72;5052767;28;20041;-49
2021/06/24 06:10:47;;;;;;;15.52;5.60;;;;;;;14.66;70.64;101970.34;5052538;28;20044;-48
2021/06/24 06:13:15;;;;;;;9.13;4.65;;;;;;;14.59;71.02;101972.50;5051846;28;20459;-47
2021/06/24 06:15:44;;;;;;;10.55;5.13;;;;;;;14.55;71.49;101971.38;5052277;28;20458;-47
2021/06/24 06:18:17;;;;;;;8.40;4.38;;;;;;;14.58;71.56;101968.13;5052135;28;20041;-49
2021/06/24 06:20:45;;;;;;;9.88;4.57;;;;;;;14.63;71.43;101968.16;5052620;28;20049;-50
2021/06/24 06:23:15;;;;;;;13.35;4.90;;;;;;;14.63;71.11;101965.41;5051943;28;20181;-48
2021/06/24 06:25:44;;;;;;;11.60;4.68;;;;;;;14.61;71.31;101970.34;5052068;28;20049;-48
2021/06/24 06:28:16;;;;;;;11.32;4.65;;;;;;;14.63;71.40;101965.41;5051974;28;20071;-50
2021/06/24 06:30:47;;;;;;;11.82;4.68;;;;;;;14.68;71.66;101965.44;5052008;28;20049;-49
2021/06/24 06:33:16;;;;;;;9.05;4.22;;;;;;;14.72;71.34;101971.19;5052479;28;20459;-48
2021/06/24 06:35:44;;;;;;;12.05;4.53;;;;;;;14.75;71.17;101976.97;5052161;28;20045;-49
2021/06/24 06:38:12;;;;;;;13.43;4.90;;;;;;;14.75;70.90;101971.50;5052115;28;20139;-47
2021/06/24 06:40:40;;;;;;;13.63;4.78;;;;;;;14.78;70.96;101970.94;5051444;28;20079;-48
2021/06/24 06:43:08;;;;;;;11.02;4.40;;;;;;;14.81;70.84;101975.91;5051624;28;20389;-48
2021/06/24 06:45:36;;;;;;;13.10;4.72;;;;;;;14.83;70.60;101975.63;5051745;28;20115;-48
2021/06/24 06:48:04;;;;;;;15.05;4.63;;;;;;;14.70;71.01;101971.47;5052174;28;20091;-47
2021/06/24 06:50:32;;;;;;;11.68;4.97;;;;;;;14.69;71.16;101973.38;5052115;28;20150;-50
2021/06/24 06:52:59;;;;;;;10.40;4.60;;;;;;;14.76;71.28;101967.66;5051946;28;20482;-49
2021/06/24 06:55:30;;;;;;;9.30;4.30;;;;;;;14.78;70.83;101976.44;5051691;28;20049;-49
2021/06/24 06:58:00;;;;;;;10.27;4.97;;;;;;;14.73;70.65;101965.44;5051495;28;20048;-53
2021/06/24 07:00:30;;;;;;;14.55;5.47;;;;;;;14.74;71.18;101972.56;5052204;28;20041;-49
2021/06/24 07:02:58;;;;;;;13.85;5.22;;;;;;;14.74;71.09;101969.81;5051914;28;20045;-47
2021/06/24 07:05:26;;;;;;;20.60;5.68;;;;;;;14.78;71.06;101970.94;5051807;28;20033;-50
2021/06/24 07:07:55;;;;;;;11.00;4.70;;;;;;;14.79;71.07;101975.38;5050511;28;20049;-49
2021/06/24 07:10:23;;;;;;;13.88;4.72;;;;;;;14.82;70.86;101974.81;5056778;28;20187;-49
2021/06/24 07:12:51;;;;;;;13.38;5.55;;;;;;;14.76;70.55;101973.13;5055491;28;20060;-48
2021/06/24 07:15:19;;;;;;;12.68;4.85;;;;;;;14.77;70.84;101974.81;5056022;28;20041;-49
2021/06/24 07:17:47;;;;;;;12.10;4.75;;;;;;;14.85;70.56;101977.00;5054437;28;20052;-49
2021/06/24 07:20:16;;;;;;;13.48;4.70;;;;;;;14.85;70.20;101982.50;5055307;28;20069;-50
2021/06/24 07:22:44;;;;;;;15.85;5.80;;;;;;;14.79;70.29;101972.63;5055612;28;20041;-49
2021/06/24 07:25:16;;;;;;;11.07;4.68;;;;;;;14.76;70.19;101978.63;5054073;28;20068;-49
2021/06/24 07:27:45;;;;;;;11.43;4.72;;;;;;;14.73;70.45;101981.91;5055631;28;20048;-47
2021/06/24 07:30:13;;;;;;;14.57;5.07;;;;;;;14.78;70.50;101978.38;5054510;28;20064;-50
2021/06/24 07:32:41;;;;;;;13.15;4.78;;;;;;;14.81;70.16;101975.06;5055512;28;20048;-47
2021/06/24 07:35:09;;;;;;;14.65;5.60;;;;;;;14.77;70.59;101980.28;5055401;28;20107;-46
2021/06/24 07:37:37;;;;;;;10.38;4.78;;;;;;;14.79;70.18;101982.75;5054853;28;20438;-49
2021/06/24 07:40:06;;;;;;;11.77;5.30;;;;;;;14.80;70.43;101985.22;5054413;28;20533;-51
2021/06/24 07:42:34;;;;;;;13.60;4.60;;;;;;;14.84;70.38;101986.34;5054839;28;20060;-50
2021/06/24 07:45:02;;;;;;;12.35;5.05;;;;;;;14.89;70.42;101982.81;5055493;28;20080;-49
2021/06/24 07:47:30;;;;;;;13.55;5.55;;;;;;;14.94;70.63;101984.75;5055002;28;20044;-48
2021/06/24 07:49:58;;;;;;;12.52;5.47;;;;;;;14.99;70.76;101979.28;5053828;28;20041;-47
2021/06/24 07:52:25;;;;;;;9.60;4.60;;;;;;;15.06;70.58;101977.09;5054746;28;20103;-47
2021/06/24 07:54:53;;;;;;;9.43;4.50;;;;;;;15.12;70.30;101978.75;5054662;28;20110;-51
2021/06/24 07:57:21;;;;;;;13.40;5.25;;;;;;;15.05;69.55;101969.94;5054654;28;20100;-46
2021/06/24 07:59:49;;;;;;;12.63;4.65;;;;;;;15.02;69.10;101975.97;5054766;28;20048;-46
2021/06/24 08:02:17;;;;;;;11.88;4.65;;;;;;;15.07;68.07;101976.00;5055078;28;20442;-46
2021/06/24 08:04:44;;;;;;;12.68;5.00;;;;;;;15.09;68.34;101971.88;5054691;28;20472;-45
2021/06/24 08:07:12;;;;;;;11.88;5.03;;;;;;;15.07;68.34;101974.06;5055023;28;20062;-48
2021/06/24 08:09:40;;;;;;;15.27;5.30;;;;;;;15.11;67.91;101968.88;5053895;28;20099;-46
2021/06/24 08:12:08;;;;;;;12.40;5.20;;;;;;;15.14;67.94;101968.31;5054724;28;20048;-47
2021/06/24 08:14:36;;;;;;;13.18;4.25;;;;;;;15.16;68.02;101971.63;5054837;28;20053;-49
2021/06/24 08:17:03;;;;;;;16.15;5.80;;;;;;;15.22;68.63;101965.03;5054398;28;20049;-47
2021/06/24 08:19:31;;;;;;;10.90;4.88;;;;;;;15.27;68.41;101967.81;5054006;28;20048;-48
2021/06/24 08:21:59;;;;;;;15.13;4.90;;;;;;;15.31;68.49;101974.41;5054238;28;20504;-48
2021/06/24 08:24:27;;;;;;;10.48;4.75;;;;;;;15.30;68.40;101966.47;5054177;28;20061;-48
2021/06/24 08:26:56;;;;;;;14.88;5.38;;;;;;;15.24;68.04;101968.34;5054220;28;20118;-46
2021/06/24 08:29:23;;;;;;;13.95;5.13;;;;;;;15.23;68.00;101969.47;5054530;28;20049;-46
2021/06/24 08:31:51;;;;;;;13.95;5.18;;;;;;;15.26;68.09;101970.84;5054431;28;20102;-47
2021/06/24 08:34:19;;;;;;;11.18;4.78;;;;;;;15.32;68.56;101976.06;5054425;28;20124;-47
2021/06/24 08:36:47;;;;;;;10.68;5.25;;;;;;;15.34;68.30;101978.53;5053986;28;20045;-47
2021/06/24 08:39:15;;;;;;;12.27;5.43;;;;;;;15.36;68.26;101981.00;5048712;28;20518;-48
2021/06/24 08:41:47;;;;;;;12.52;5.03;;;;;;;15.32;68.60;101986.22;5053979;28;20049;-48
2021/06/24 08:44:16;;;;;;;12.60;5.35;;;;;;;15.26;68.11;101988.13;5052331;28;20052;-47
2021/06/24 08:46:44;;;;;;;11.25;4.80;;;;;;;15.24;67.08;101987.56;5045691;28;20056;-48
2021/06/24 08:49:12;;;;;;;13.35;4.65;;;;;;;15.22;66.56;101987.00;5053710;28;20076;-49
2021/06/24 08:51:40;;;;;;;11.90;4.80;;;;;;;15.22;66.92;101989.75;5052378;28;20036;-48
2021/06/24 08:54:08;;;;;;;12.95;4.90;;;;;;;15.27;66.99;101987.03;5053912;28;20048;-47
2021/06/24 08:56:35;;;;;;;10.77;4.82;;;;;;;15.33;67.91;101990.63;5053785;28;20044;-51
2021/06/24 08:59:04;;;;;;;12.73;5.20;;;;;;;15.37;66.96;101988.13;5053820;28;20047;-50
2021/06/24 09:01:59;;;;;;;14.48;6.03;;;;;;;15.37;66.28;101993.63;5049241;28;20068;-52
2021/06/24 09:04:31;;;;;;;8.82;4.38;;;;;;;15.33;66.45;101998.84;5047693;28;20045;-53
2021/06/24 09:07:07;;;;;;;11.02;4.97;;;;;;;15.34;66.65;101995.84;5053548;28;20049;-49
2021/06/24 09:09:37;;;;;;;9.95;4.35;;;;;;;15.37;66.41;101997.22;5053456;28;20041;-53
2021/06/24 09:12:10;;;;;;;11.50;4.95;;;;;;;15.37;66.02;101999.97;5053946;28;20052;-50
2021/06/24 09:14:44;;;;;;;9.75;4.13;;;;;;;15.37;66.45;102004.63;5053917;28;20442;-48
2021/06/24 09:17:31;;;;;;;14.85;4.97;;;;;;;15.39;66.41;102007.91;5053933;28;20158;-45
2021/06/24 09:19:59;;;;;;;11.38;4.38;;;;;;;15.41;66.82;102000.25;5053294;28;20050;-50
2021/06/24 09:22:27;;;;;;;11.98;5.10;;;;;;;15.41;66.39;101998.31;5053815;28;20037;-50
2021/06/24 09:24:55;;;;;;;10.77;4.93;;;;;;;15.40;66.21;102002.16;5053086;28;20084;-50
2021/06/24 09:27:28;;;;;;;9.77;4.82;;;;;;;15.43;66.37;102004.38;5053244;28;20048;-50
2021/06/24 09:30:08;;;;;;;10.02;5.53;;;;;;;15.46;66.25;102008.50;5048858;28;20208;-50
2021/06/24 09:32:47;;;;;;;10.18;4.45;;;;;;;15.40;65.85;102004.09;5039956;28;20063;-49
2021/06/24 09:35:29;;;;;;;14.93;6.00;;;;;;;15.32;65.73;102003.53;5052654;28;20045;-52
2021/06/24 09:38:04;;;;;;;10.32;4.90;;;;;;;15.37;66.20;102004.63;5053007;28;20053;-47
2021/06/24 09:40:50;;;;;;;12.77;4.80;;;;;;;15.46;66.50;102008.50;5052865;28;20056;-51
2021/06/24 09:43:27;;;;;;;12.18;5.25;;;;;;;15.45;65.84;102012.34;5051936;28;20040;-50
2021/06/24 09:46:15;;;;;;;14.48;4.57;;;;;;;15.48;66.22;102009.03;5048421;28;20487;-50
2021/06/24 09:48:46;;;;;;;11.75;4.82;;;;;;;15.51;65.86;102006.59;5045597;28;20084;-50
2021/06/24 09:51:14;;;;;;;10.35;4.40;;;;;;;15.51;65.81;102003.00;5052627;28;20041;-51
2021/06/24 09:53:59;;;;;;;12.40;5.43;;;;;;;15.46;65.28;102003.00;5052964;28;20052;-52
2021/06/24 09:56:51;;;;;;;11.40;5.72;;;;;;;15.45;64.97;101993.13;5052436;28;20454;-50
2021/06/24 09:59:19;;;;;;;11.52;6.20;;;;;;;15.53;65.20;101992.56;5052564;28;20444;-50
2021/06/24 10:01:48;;;;;;;10.20;4.70;;;;;;;15.52;65.16;101997.25;5052504;28;20041;-51
2021/06/24 10:04:24;;;;;;;13.60;5.50;;;;;;;15.57;65.32;101993.69;5052282;28;20045;-52
2021/06/24 10:06:54;;;;;;;12.18;5.72;;;;;;;15.61;65.39;101997.53;5052687;28;20106;-48
2021/06/24 10:09:24;;;;;;;12.45;6.18;;;;;;;15.65;65.05;101997.81;5052219;28;20048;-51
2021/06/24 10:11:53;;;;;;;12.38;6.25;;;;;;;15.70;65.06;101997.84;5052529;28;20041;-50
2021/06/24 10:14:22;;;;;;;10.73;5.13;;;;;;;15.69;65.21;101991.50;5052312;28;20048;-52
2021/06/24 10:17:01;;;;;;;13.10;5.40;;;;;;;15.69;65.41;101990.66;5052278;28;20087;-50
2021/06/24 10:19:31;;;;;;;12.32;4.47;;;;;;;15.71;66.08;102005.81;5051651;28;20139;-50
2021/06/24 10:22:08;;;;;;;11.15;5.18;;;;;;;15.82;64.42;102000.31;5051035;28;20407;-50
2021/06/24 10:25:03;;;;;;;29.25;11.57;;;;;;;15.93;65.58;102001.97;5050678;28;20044;-52
2021/06/24 10:27:36;;;;;;;16.67;5.27;;;;;;;16.07;62.47;102002.25;5047757;28;20042;-51
2021/06/24 10:30:24;;;;;;;9.45;4.55;;;;;;;16.01;62.65;101993.16;5041903;28;20049;-49
2021/06/24 10:33:00;;;;;;;13.93;5.43;;;;;;;15.93;62.67;101993.72;5051928;28;20041;-49
2021/06/24 10:35:29;;;;;;;10.02;4.72;;;;;;;15.88;63.06;101991.00;5051801;28;20450;-51
2021/06/24 10:38:05;;;;;;;8.23;4.60;;;;;;;15.83;63.03;101988.25;5051929;28;20041;-49
2021/06/24 10:40:34;;;;;;;14.70;5.20;;;;;;;15.81;62.96;101990.44;5051483;28;20066;-49
2021/06/24 10:43:13;;;;;;;11.43;5.13;;;;;;;15.81;63.28;101990.44;5050141;28;20526;-52
2021/06/24 10:45:43;;;;;;;11.02;4.80;;;;;;;15.84;62.57;101995.38;5051614;28;20037;-51
2021/06/24 10:48:24;;;;;;;9.65;4.90;;;;;;;15.85;61.86;101988.75;5051883;28;20045;-49
2021/06/24 10:51:00;;;;;;;11.00;5.22;;;;;;;15.84;61.75;101989.88;5051490;28;20060;-53
2021/06/24 10:53:27;;;;;;;9.97;4.80;;;;;;;15.85;61.43;101986.00;5052060;28;20053;-53
2021/06/24 10:55:55;;;;;;;10.43;4.80;;;;;;;15.86;61.35;101979.44;5051894;28;20037;-51
2021/06/24 10:58:29;;;;;;;12.27;4.40;;;;;;;15.93;61.99;101980.00;5051432;28;20462;-49
2021/06/24 11:00:59;;;;;;;9.98;4.90;;;;;;;16.03;62.18;101973.66;5051547;28;20045;-54
2021/06/24 11:03:37;;;;;;;10.85;4.90;;;;;;;16.06;62.11;101973.91;5051142;28;20076;-51
2021/06/24 11:06:09;;;;;;;13.15;5.10;;;;;;;16.04;61.75;101970.59;5051923;28;20094;-54
2021/06/24 11:08:40;;;;;;;10.55;5.20;;;;;;;15.99;61.96;101967.88;5051509;28;20037;-53
2021/06/24 11:11:12;;;;;;;8.95;4.80;;;;;;;15.99;62.44;101959.63;5051936;28;20060;-54
2021/06/24 11:13:41;;;;;;;12.13;4.82;;;;;;;16.05;62.75;101975.03;5051289;28;20041;-52
2021/06/24 11:16:18;;;;;;;11.05;5.05;;;;;;;16.08;62.74;101968.97;5046943;28;20054;-53
2021/06/24 11:19:00;;;;;;;9.32;4.07;;;;;;;16.11;62.98;101970.34;5037746;28;20104;-52
2021/06/24 11:21:31;;;;;;;12.32;5.25;;;;;;;16.14;62.69;101972.56;5051620;28;20518;-54
2021/06/24 11:24:05;;;;;;;10.05;5.20;;;;;;;16.12;62.44;101978.31;5051512;28;20048;-51
2021/06/24 11:26:35;;;;;;;11.70;5.20;;;;;;;16.12;62.65;101972.81;5051286;28;20049;-52
2021/06/24 11:31:39;;;;;;;12.35;4.68;;;;;;;16.08;62.80;101976.41;5051345;28;20120;-51
2021/06/24 11:36:55;;;;;;;11.07;5.10;;;;;;;16.05;62.84;101974.22;5051844;28;20045;-51
2021/06/24 11:39:43;;;;;;;12.25;5.38;;;;;;;16.07;62.99;101975.56;5050736;28;20057;-49
2021/06/24 11:42:13;;;;;;;13.20;5.63;;;;;;;16.10;62.53;101963.19;5051075;28;20041;-51